Time;durP1;ratioP1;P1;durP2;ratioP2;P2;SDS_P1;SDS_P2;PMS_P1;PMS_P2;Temp;Humidity;BMP_temperature;BMP_pressure;BME280_temperature;BME280_humidity;BME280_pressure;Samples;Min_cycle;Max_cycle;Signal;HPM_P1;HPM_P2
2022/03/17 00:08:26;;;;;;;;;;;;;;;20.79;44.97;101375.09;20728761;27;97282;-79
2022/03/17 00:18:27;;;;;;;;;;;;;;;20.79;44.94;101372.47;20744273;27;100110;-79
2022/03/17 00:28:27;;;;;;;;;;;;;;;20.80;45.05;101373.34;20720376;27;97093;-78
2022/03/17 00:38:28;;;;;;;;;;;;;;;20.82;45.24;101368.81;20727383;27;97360;-79
2022/03/17 00:48:29;;;;;;;;;;;;;;;20.82;44.86;101378.50;20730430;27;97194;-79
2022/03/17 00:58:29;;;;;;;;;;;;;;;20.81;45.53;101382.91;20724112;27;96891;-78
2022/03/17 01:08:31;;;;;;;;;;;;;;;20.77;45.46;101379.59;20742593;27;97659;-79
2022/03/17 01:18:31;;;;;;;;;;;;;;;20.76;45.01;101396.34;20744809;27;96947;-79
2022/03/17 01:28:32;;;;;;;;;;;;;;;20.73;45.14;101401.78;20739918;27;100371;-78
2022/03/17 01:38:33;;;;;;;;;;;;;;;20.72;45.49;101401.88;20721850;27;98538;-78
2022/03/17 01:48:34;;;;;;;;;;;;;;;20.72;45.35;101410.63;20736425;27;98272;-78
2022/03/17 01:58:34;;;;;;;;;;;;;;;20.68;45.27;101409.09;20757981;27;98789;-79
2022/03/17 02:08:35;;;;;;;;;;;;;;;20.70;45.65;101416.88;20762734;27;99287;-80
2022/03/17 02:18:36;;;;;;;;;;;;;;;20.65;45.46;101427.69;20746198;27;97211;-79
2022/03/17 02:28:36;;;;;;;;;;;;;;;20.59;45.28;101421.00;20730907;27;97608;-78
2022/03/17 02:38:37;;;;;;;;;;;;;;;20.56;45.21;101431.69;20744144;27;97913;-78
2022/03/17 02:48:37;;;;;;;;;;;;;;;20.48;45.57;101439.19;20683235;27;98516;-78
2022/03/17 02:58:38;;;;;;;;;;;;;;;20.52;45.36;101447.75;20665772;28;100571;-79
2022/03/17 03:08:38;;;;;;;;;;;;;;;20.52;45.23;101467.03;20663194;28;97968;-78
2022/03/17 03:18:40;;;;;;;;;;;;;;;20.50;45.17;101487.31;20654644;28;99040;-79
2022/03/17 03:28:41;;;;;;;;;;;;;;;20.48;45.47;101503.19;20638900;28;99723;-78
2022/03/17 03:38:42;;;;;;;;;;;;;;;20.46;45.38;101512.94;20661356;28;98680;-79
2022/03/17 03:48:43;;;;;;;;;;;;;;;20.46;45.33;101512.13;20657340;27;98538;-78
2022/03/17 03:58:43;;;;;;;;;;;;;;;20.42;45.40;101514.06;20682024;27;97477;-80
2022/03/17 04:08:44;;;;;;;;;;;;;;;20.42;45.29;101508.81;20674791;27;98730;-79
2022/03/17 04:18:45;;;;;;;;;;;;;;;20.40;45.35;101486.16;20664021;28;100010;-79
2022/03/17 04:28:45;;;;;;;;;;;;;;;20.39;45.34;101471.28;20675567;27;97481;-78
2022/03/17 04:38:46;;;;;;;;;;;;;;;20.36;45.19;101496.00;20663259;28;99767;-78
2022/03/17 04:48:47;;;;;;;;;;;;;;;20.36;45.17;101510.91;20653538;28;96988;-79
2022/03/17 04:58:49;;;;;;;;;;;;;;;20.31;45.51;101532.22;20678904;28;97604;-80
2022/03/17 05:08:49;;;;;;;;;;;;;;;20.31;45.78;101529.56;20678716;28;97755;-79
2022/03/17 05:18:51;;;;;;;;;;;;;;;20.40;45.63;101555.38;20652359;28;97779;-78
2022/03/17 05:28:52;;;;;;;;;;;;;;;20.50;46.23;101571.50;20648310;28;97715;-79
2022/03/17 05:38:52;;;;;;;;;;;;;;;20.57;46.14;101593.09;20655814;28;101376;-77
2022/03/17 05:48:53;;;;;;;;;;;;;;;20.63;46.08;101614.63;20716284;27;97363;-78
2022/03/17 05:58:53;;;;;;;;;;;;;;;20.68;46.28;101632.81;20714886;27;100842;-76
2022/03/17 06:08:54;;;;;;;;;;;;;;;20.69;45.51;101652.94;20712518;27;97149;-76
2022/03/17 06:18:54;;;;;;;;;;;;;;;20.69;44.24;101666.09;20728949;27;97435;-75
2022/03/17 06:28:55;;;;;;;;;;;;;;;20.71;42.72;101680.00;20738040;27;97181;-75
2022/03/17 06:38:55;;;;;;;;;;;;;;;20.78;44.21;101683.19;20744653;27;98047;-76
2022/03/17 06:48:56;;;;;;;;;;;;;;;20.83;44.37;101688.19;20734928;27;98229;-76
2022/03/17 06:58:57;;;;;;;;;;;;;;;20.92;44.60;101709.59;20743929;27;96937;-77
2022/03/17 07:08:57;;;;;;;;;;;;;;;20.98;44.74;101707.56;20737150;27;97565;-75
2022/03/17 07:18:58;;;;;;;;;;;;;;;21.02;44.82;101720.47;20727052;27;97205;-75
2022/03/17 07:28:58;;;;;;;;;;;;;;;21.06;44.16;101718.53;20732131;27;97619;-75
2022/03/17 07:39:01;;;;;;;;;;;;;;;21.13;43.84;101713.75;20744809;27;96894;-75
2022/03/17 07:49:02;;;;;;;;;;;;;;;21.14;43.88;101708.41;20736821;27;97375;-75
2022/03/17 07:59:02;;;;;;;;;;;;;;;21.15;43.89;101710.06;20747074;27;96818;-75
2022/03/17 08:09:03;;;;;;;;;;;;;;;21.17;43.81;101718.75;20737072;27;98601;-76
2022/03/17 08:19:03;;;;;;;;;;;;;;;21.19;43.63;101732.69;20737576;27;98301;-75
2022/03/17 08:29:04;;;;;;;;;;;;;;;21.20;43.44;101726.50;20740093;27;100211;-76
2022/03/17 08:39:05;;;;;;;;;;;;;;;21.21;43.02;101745.78;20734634;27;97825;-75
2022/03/17 08:49:18;;;;;;;;;;;;;;;21.22;43.25;101731.66;20729720;27;97258;-76
2022/03/17 08:59:18;;;;;;;;;;;;;;;21.23;42.83;101750.03;20739744;28;97243;-76
2022/03/17 09:09:19;;;;;;;;;;;;;;;21.24;42.97;101745.63;20730922;27;96985;-75
2022/03/17 09:19:19;;;;;;;;;;;;;;;21.26;42.75;101751.63;20731798;27;97200;-75
2022/03/17 09:29:20;;;;;;;;;;;;;;;21.27;42.41;101753.31;20719658;27;100908;-76
2022/03/17 09:49:40;;;;;;;;;;;;;;;21.34;42.11;101769.66;20722681;27;98185;-76
2022/03/17 09:59:40;;;;;;;;;;;;;;;21.35;42.44;101763.44;20748876;27;97470;-75
2022/03/17 10:09:42;;;;;;;;;;;;;;;21.37;42.50;101758.94;20761404;27;101282;-75
2022/03/17 10:19:43;;;;;;;;;;;;;;;21.40;42.11;101753.50;20752386;27;97591;-75
2022/03/17 10:30:00;;;;;;;;;;;;;;;21.44;42.15;101744.47;20734434;27;97584;-74
2022/03/17 10:40:07;;;;;;;;;;;;;;;21.49;42.60;101746.84;20737593;27;102243;-75
2022/03/17 10:50:11;;;;;;;;;;;;;;;21.54;42.67;101758.81;20731451;27;98026;-75
2022/03/17 11:00:19;;;;;;;;;;;;;;;21.59;42.79;101741.00;20754874;27;100501;-75
2022/03/17 11:10:22;;;;;;;;;;;;;;;21.64;42.57;101746.00;20746155;27;96982;-75
2022/03/17 11:20:23;;;;;;;;;;;;;;;21.69;42.66;101754.50;20742660;27;97229;-75
2022/03/17 11:30:28;;;;;;;;;;;;;;;21.70;42.86;101756.19;20753505;27;97430;-74
2022/03/17 11:40:29;;;;;;;;;;;;;;;21.68;42.45;101754.56;20743404;27;98237;-74
2022/03/17 11:50:37;;;;;;;;;;;;;;;21.68;42.34;101749.28;20746774;27;97512;-74
2022/03/17 12:00:44;;;;;;;;;;;;;;;21.65;42.54;101766.13;20747319;27;98366;-74
2022/03/17 12:11:04;;;;;;;;;;;;;;;21.64;42.51;101760.97;20728291;27;97647;-74
2022/03/17 12:21:04;;;;;;;;;;;;;;;21.64;43.29;101763.59;20689819;27;98199;-74
2022/03/17 12:31:05;;;;;;;;;;;;;;;21.59;40.63;101748.03;20729396;27;97867;-74
2022/03/17 12:41:10;;;;;;;;;;;;;;;21.63;41.06;101746.06;20746910;27;98035;-75
2022/03/17 12:51:12;;;;;;;;;;;;;;;21.75;42.75;101751.50;20610109;28;98730;-75
2022/03/17 13:01:13;;;;;;;;;;;;;;;21.84;44.71;101755.38;20665921;27;99558;-74
2022/03/17 13:21:34;;;;;;;;;;;;;;;21.81;44.63;101744.16;20722331;27;97704;-76
2022/03/17 13:31:35;;;;;;;;;;;;;;;21.81;44.49;101744.16;20737985;27;98092;-75
2022/03/17 13:41:36;;;;;;;;;;;;;;;21.79;44.48;101749.53;20756151;27;97897;-74
2022/03/17 13:51:36;;;;;;;;;;;;;;;;;;20757742;27;97261;-75
2022/03/17 14:01:36;;;;;;;;;;;;;;;21.72;43.76;101742.91;20749870;27;100033;-75
2022/03/17 14:11:37;;;;;;;;;;;;;;;21.70;43.67;101747.41;20743397;27;97132;-75
2022/03/17 14:24:10;;;;;;;;;;;;;;;21.68;43.67;101751.94;20738507;27;96957;-75
2022/03/17 14:31:58;;;;;;;;;;;;;;;21.65;43.38;101754.75;20753728;27;99136;-75
2022/03/17 14:41:58;;;;;;;;;;;;;;;21.63;43.33;101746.06;20739781;27;97264;-74
2022/03/17 14:51:59;;;;;;;;;;;;;;;21.59;43.52;101755.94;20624103;28;97041;-78
2022/03/17 15:02:00;;;;;;;;;;;;;;;21.57;43.10;101756.03;20641604;28;98339;-76
2022/03/17 15:12:00;;;;;;;;;;;;;;;21.54;42.76;101758.81;20675706;28;96859;-79
2022/03/17 15:22:01;;;;;;;;;;;;;;;21.52;43.38;101775.66;20653643;28;101330;-77
2022/03/17 15:32:01;;;;;;;;;;;;;;;21.50;42.90;101788.09;20670715;28;99368;-76
2022/03/17 15:42:01;;;;;;;;;;;;;;;21.51;43.20;101785.34;20669217;28;98977;-79
2022/03/17 15:52:02;;;;;;;;;;;;;;;21.52;44.08;101804.63;20677440;28;101946;-79
2022/03/17 16:02:05;;;;;;;;;;;;;;;21.51;43.47;101824.06;20675946;28;96951;-79
2022/03/17 16:22:25;;;;;;;;;;;;;;;21.50;44.00;101848.69;20679329;28;98516;-79
2022/03/17 16:32:25;;;;;;;;;;;;;;;21.46;44.17;101855.06;20656004;28;98172;-78
2022/03/17 16:42:26;;;;;;;;;;;;;;;21.43;44.10;101864.84;20661431;28;97625;-77
2022/03/17 16:52:26;;;;;;;;;;;;;;;21.40;44.45;101877.34;20635636;28;97006;-75
2022/03/17 17:02:27;;;;;;;;;;;;;;;21.40;44.37;101893.16;20652118;28;97220;-77
2022/03/17 17:12:31;;;;;;;;;;;;;;;21.35;44.49;101901.31;20637447;28;98212;-79
2022/03/17 17:22:31;;;;;;;;;;;;;;;21.34;44.53;101896.97;20632856;28;96990;-79
2022/03/17 17:32:32;;;;;;;;;;;;;;;21.36;45.96;101897.75;20652630;28;100261;-75
2022/03/17 17:42:33;;;;;;;;;;;;;;;21.42;48.40;101905.31;20660456;27;97001;-74
2022/03/17 17:52:34;;;;;;;;;;;;;;;21.45;49.97;101925.38;20734864;27;99350;-74
2022/03/17 18:02:35;;;;;;;;;;;;;;;21.44;48.84;101923.66;20708956;27;97064;-73
2022/03/17 18:12:36;;;;;;;;;;;;;;;21.40;48.51;101928.25;20722057;27;98451;-72
2022/03/17 18:22:37;;;;;;;;;;;;;;;21.38;48.39;101947.72;20735939;27;97260;-73
2022/03/17 18:32:37;;;;;;;;;;;;;;;21.35;47.50;101963.69;20724226;27;97023;-73
2022/03/17 18:42:39;;;;;;;;;;;;;;;21.31;47.01;101972.69;20744123;27;98339;-75
2022/03/17 18:52:39;;;;;;;;;;;;;;;21.32;46.92;101990.19;20729129;27;97657;-75
2022/03/17 19:02:40;;;;;;;;;;;;;;;21.26;46.67;102002.78;20715441;27;100381;-74
2022/03/17 19:12:40;;;;;;;;;;;;;;;21.26;46.24;102013.31;20723193;27;97702;-74
2022/03/17 19:22:40;;;;;;;;;;;;;;;21.25;46.35;102018.63;20743056;27;98458;-74
2022/03/17 19:32:41;;;;;;;;;;;;;;;21.23;46.13;102033.69;20728284;27;97341;-74
2022/03/17 19:42:41;;;;;;;;;;;;;;;21.21;46.08;102044.28;20719902;27;101302;-75
2022/03/17 19:52:42;;;;;;;;;;;;;;;21.20;46.05;102055.78;20658632;28;97836;-75
2022/03/17 20:02:42;;;;;;;;;;;;;;;21.19;45.93;102061.09;20637926;28;97728;-75
2022/03/17 20:23:03;;;;;;;;;;;;;;;21.17;46.38;102063.00;20721841;27;97238;-76
2022/03/17 20:33:04;;;;;;;;;;;;;;;21.16;46.34;102082.34;20721819;27;98568;-75
2022/03/17 20:43:04;;;;;;;;;;;;;;;21.17;46.35;102086.69;20736801;27;100502;-75
2022/03/17 20:53:04;;;;;;;;;;;;;;;21.16;47.45;102100.78;20722668;27;100881;-77
2022/03/17 21:03:05;;;;;;;;;;;;;;;21.14;47.03;102092.09;20730862;27;98194;-76
2022/03/17 21:13:06;;;;;;;;;;;;;;;21.11;47.32;102104.50;20732276;27;97662;-77
2022/03/17 21:23:07;;;;;;;;;;;;;;;21.08;47.52;102099.41;20732884;27;97857;-76
2022/03/17 21:33:08;;;;;;;;;;;;;;;21.06;47.71;102103.88;20714017;27;97422;-76
2022/03/17 21:43:09;;;;;;;;;;;;;;;21.04;47.65;102111.00;20715838;27;97265;-76
2022/03/17 21:53:09;;;;;;;;;;;;;;;21.02;47.52;102112.88;20727184;27;97071;-75
2022/03/17 22:03:10;;;;;;;;;;;;;;;21.00;47.46;102122.63;20737312;27;98394;-76
2022/03/17 22:13:10;;;;;;;;;;;;;;;21.00;47.49;102130.50;20740098;27;99431;-78
2022/03/17 22:23:11;;;;;;;;;;;;;;;21.00;47.75;102148.13;20742765;27;97081;-78
2022/03/17 22:33:12;;;;;;;;;;;;;;;21.02;47.82;102149.75;20752803;27;99349;-79
2022/03/17 22:43:13;;;;;;;;;;;;;;;21.01;47.64;102149.81;20735258;27;97340;-78
2022/03/17 22:53:14;;;;;;;;;;;;;;;21.00;47.53;102164.75;20740321;27;98075;-79
2022/03/17 23:03:16;;;;;;;;;;;;;;;20.98;47.73;102163.13;20736662;27;97601;-78
2022/03/17 23:13:16;;;;;;;;;;;;;;;20.97;47.93;102166.69;20726574;27;99578;-79
2022/03/17 23:23:17;;;;;;;;;;;;;;;20.94;47.79;102159.78;20742849;27;100080;-78
2022/03/17 23:33:17;;;;;;;;;;;;;;;20.88;47.64;102165.34;20742476;27;97943;-78
2022/03/17 23:43:18;;;;;;;;;;;;;;;20.92;48.12;102164.25;20742321;28;97522;-79
2022/03/17 23:53:19;;;;;;;;;;;;;;;20.93;48.51;102180.00;20724515;28;97833;-78
